Terminal Aerodrome Forecast
Issued by NWS

Home | Current Version | Previous Version | Text Only | Print | Product List | Glossary On
Versions: 1 2 3 4 5 6 7 8 9 10 11 12 13 14 15 16 17 18 19 20 21
000
FTUS43 KLSX 040500
TAFUIN
TAF
KUIN 040531Z 0406/0506 19008KT P6SM VCSH SCT120 BKN250
     FM040900 18006KT P6SM VCTS BKN080CB
     FM041300 22014KT P6SM FEW050 SCT120 BKN250
     FM042300 24012KT P6SM VCTS BKN050CB
     FM050400 18005KT P6SM BKN100=

USA.gov is the U.S. government's official web portal to all federal, state and local government web resources and services.